Time;durP1;ratioP1;P1;durP2;ratioP2;P2;SDS_P1;SDS_P2;PMS_P1;PMS_P2;Temp;Humidity;BMP_temperature;BMP_pressure;BME280_temperature;BME280_humidity;BME280_pressure;Samples;Min_cycle;Max_cycle;Signal;HPM_P1;HPM_P2
2021/04/19 00:01:58;;;;;;;1.23;0.87;;;10.60;99.90;;;;;;4988133;28;20227;-81
2021/04/19 00:04:23;;;;;;;5.20;0.90;;;10.50;99.90;;;;;;5000443;28;20211;-80
2021/04/19 00:06:49;;;;;;;0.57;0.53;;;10.50;99.90;;;;;;4983249;28;20184;-81
2021/04/19 00:09:15;;;;;;;0.70;0.47;;;10.50;99.90;;;;;;5003940;28;20718;-81
2021/04/19 00:11:40;;;;;;;0.30;0.30;;;10.50;99.90;;;;;;4986253;28;20197;-81
2021/04/19 00:14:06;;;;;;;0.60;0.60;;;10.50;99.90;;;;;;4988492;28;20274;-81
2021/04/19 00:16:32;;;;;;;1.57;0.50;;;10.50;99.90;;;;;;5008639;28;20688;-81
2021/04/19 00:18:58;;;;;;;0.50;0.50;;;10.60;99.90;;;;;;5011537;28;20237;-81
2021/04/19 00:21:23;;;;;;;1.97;1.13;;;10.60;99.90;;;;;;5001937;28;20268;-81
2021/04/19 00:23:49;;;;;;;1.07;1.07;;;10.60;99.90;;;;;;4986137;28;20257;-81
2021/04/19 00:26:15;;;;;;;1.40;0.60;;;10.50;99.90;;;;;;4983422;28;20268;-81
2021/04/19 00:28:40;;;;;;;0.37;0.33;;;10.50;99.90;;;;;;5005264;28;20182;-80
2021/04/19 00:31:07;;;;;;;1.70;0.80;;;10.50;99.90;;;;;;5002319;28;20742;-81
2021/04/19 00:33:33;;;;;;;0.70;0.63;;;10.50;99.90;;;;;;4995973;28;20195;-80
2021/04/19 00:35:58;;;;;;;1.20;0.63;;;10.40;99.90;;;;;;5006021;28;20194;-81
2021/04/19 00:38:24;;;;;;;1.03;0.73;;;10.50;99.90;;;;;;5000917;28;20284;-81
2021/04/19 00:40:53;;;;;;;1.87;1.23;;;10.50;99.90;;;;;;5011913;28;20206;-81
2021/04/19 00:43:20;;;;;;;0.40;0.40;;;10.50;99.90;;;;;;5007052;28;20527;-80
2021/04/19 00:45:50;;;;;;;1.37;1.27;;;10.50;99.90;;;;;;4997057;28;20192;-81
2021/04/19 00:48:16;;;;;;;4.67;1.47;;;10.50;99.90;;;;;;4994352;28;20189;-81
2021/04/19 00:50:42;;;;;;;1.30;1.13;;;10.50;99.90;;;;;;4998543;28;20234;-80
2021/04/19 00:53:09;;;;;;;0.93;0.70;;;10.50;99.90;;;;;;5010039;28;20675;-81
2021/04/19 00:55:35;;;;;;;0.47;0.47;;;10.40;99.90;;;;;;4994376;28;20274;-81
2021/04/19 00:58:00;;;;;;;2.07;1.03;;;10.50;99.90;;;;;;5010278;28;20270;-81
2021/04/19 01:00:33;;;;;;;3.27;1.93;;;10.50;99.90;;;;;;5009048;28;20286;-81
2021/04/19 01:02:59;;;;;;;2.10;1.67;;;10.40;99.90;;;;;;5006720;28;20249;-81
2021/04/19 01:05:30;;;;;;;1.10;1.07;;;10.40;99.90;;;;;;5009645;28;20210;-81
2021/04/19 01:07:56;;;;;;;1.53;1.00;;;10.30;99.90;;;;;;5015134;28;20178;-80
2021/04/19 01:10:21;;;;;;;4.13;0.83;;;10.30;99.90;;;;;;4979495;28;20195;-79
2021/04/19 01:12:47;;;;;;;1.20;1.20;;;10.20;99.90;;;;;;4994852;28;20260;-81
2021/04/19 01:15:14;;;;;;;1.53;1.40;;;10.20;99.90;;;;;;5001768;28;20761;-80
2021/04/19 01:17:41;;;;;;;0.77;0.70;;;10.20;99.90;;;;;;5012323;28;20671;-81
2021/04/19 01:20:13;;;;;;;0.53;0.53;;;10.20;99.90;;;;;;4996382;28;20699;-81
2021/04/19 01:22:39;;;;;;;1.67;1.33;;;10.20;99.90;;;;;;5011527;28;20187;-81
2021/04/19 01:25:07;;;;;;;1.67;1.57;;;10.10;99.90;;;;;;5006369;28;20566;-80
2021/04/19 01:27:34;;;;;;;1.03;0.67;;;10.10;99.90;;;;;;5003772;28;20273;-81
2021/04/19 01:29:59;;;;;;;1.13;0.80;;;10.20;99.90;;;;;;4997361;28;20686;-81
2021/04/19 01:32:25;;;;;;;1.77;1.67;;;10.20;99.90;;;;;;4989809;28;20186;-81
2021/04/19 01:34:50;;;;;;;2.07;0.97;;;10.10;99.90;;;;;;5014244;28;20191;-81
2021/04/19 01:37:16;;;;;;;0.70;0.70;;;10.10;99.90;;;;;;4993322;28;20285;-81
2021/04/19 01:39:43;;;;;;;2.20;1.20;;;10.00;99.90;;;;;;4980913;28;20258;-81
2021/04/19 01:42:09;;;;;;;1.20;1.10;;;10.00;99.90;;;;;;5006828;28;20209;-81
2021/04/19 01:44:35;;;;;;;0.67;0.67;;;9.90;99.90;;;;;;4986994;28;20238;-80
2021/04/19 01:47:01;;;;;;;0.40;0.40;;;9.90;99.90;;;;;;4987421;28;20212;-80
2021/04/19 01:49:30;;;;;;;0.83;0.83;;;9.90;99.90;;;;;;5009107;28;20787;-81
2021/04/19 01:51:55;;;;;;;0.67;0.67;;;9.80;99.90;;;;;;4999821;28;20233;-80
2021/04/19 01:54:21;;;;;;;0.47;0.47;;;9.80;99.90;;;;;;5010782;28;20185;-80
2021/04/19 01:56:47;;;;;;;2.03;0.73;;;9.80;99.90;;;;;;4988223;28;20242;-81
2021/04/19 01:59:13;;;;;;;1.13;0.67;;;9.80;99.90;;;;;;4991637;28;20214;-81
2021/04/19 02:01:53;;;;;;;0.70;0.70;;;9.80;99.90;;;;;;4993739;28;20190;-81
2021/04/19 02:04:34;;;;;;;3.37;3.13;;;9.70;99.90;;;;;;4980397;28;20275;-79
2021/04/19 02:07:11;;;;;;;2.00;1.03;;;9.60;99.90;;;;;;5008030;28;20690;-81
2021/04/19 02:09:47;;;;;;;2.03;0.77;;;9.20;99.90;;;;;;4994221;28;20311;-81
2021/04/19 02:12:27;;;;;;;1.30;0.87;;;9.00;99.90;;;;;;4997802;28;20187;-81
2021/04/19 02:15:04;;;;;;;2.97;2.77;;;8.90;99.90;;;;;;5007664;28;20186;-81
2021/04/19 02:17:57;;;;;;;0.50;0.50;;;8.70;99.90;;;;;;5004288;28;20260;-80
2021/04/19 02:20:47;;;;;;;0.10;0.10;;;8.80;99.90;;;;;;4979279;28;20680;-81
2021/04/19 02:23:33;;;;;;;0.47;0.47;;;9.00;99.90;;;;;;4982009;28;20189;-81
2021/04/19 02:26:22;;;;;;;1.67;0.30;;;9.10;99.90;;;;;;4994779;28;20186;-81
2021/04/19 02:29:11;;;;;;;0.27;0.27;;;9.30;99.90;;;;;;5009790;28;20186;-81
2021/04/19 02:31:44;;;;;;;3.73;1.37;;;9.40;99.90;;;;;;5006961;28;20209;-81
2021/04/19 02:34:14;;;;;;;0.50;0.50;;;9.40;99.90;;;;;;4994142;28;20688;-80
2021/04/19 02:36:45;;;;;;;0.60;0.60;;;9.50;99.90;;;;;;5008926;28;20189;-79
2021/04/19 02:39:12;;;;;;;0.27;0.27;;;9.50;99.90;;;;;;5011630;28;20218;-81
2021/04/19 02:41:40;;;;;;;0.57;0.57;;;9.50;99.90;;;;;;5003731;28;20241;-81
2021/04/19 02:44:08;;;;;;;0.40;0.40;;;9.60;99.90;;;;;;4996264;28;20211;-81
2021/04/19 02:46:35;;;;;;;1.27;1.20;;;9.70;99.90;;;;;;5006735;28;20215;-81
2021/04/19 02:49:01;;;;;;;1.40;0.90;;;9.70;99.90;;;;;;4984024;28;20211;-81
2021/04/19 02:51:27;;;;;;;0.70;0.70;;;9.80;99.90;;;;;;4990097;28;20185;-81
2021/04/19 02:53:53;;;;;;;2.27;0.53;;;9.90;99.90;;;;;;4992137;28;20210;-81
2021/04/19 02:56:19;;;;;;;0.40;0.30;;;9.90;99.90;;;;;;4995255;28;20187;-81
2021/04/19 02:58:50;;;;;;;1.33;0.77;;;9.90;99.90;;;;;;4989466;28;20600;-81
2021/04/19 03:01:26;;;;;;;1.83;0.73;;;9.90;99.90;;;;;;4987449;28;20646;-81
2021/04/19 03:03:58;;;;;;;1.00;1.00;;;9.90;99.90;;;;;;5009090;28;20203;-81
2021/04/19 03:06:26;;;;;;;1.90;1.23;;;9.90;99.90;;;;;;5006704;28;20187;-80
2021/04/19 03:08:54;;;;;;;1.43;0.93;;;9.90;99.90;;;;;;4983619;28;20628;-81
2021/04/19 03:11:23;;;;;;;0.80;0.57;;;9.90;99.90;;;;;;5001950;28;20263;-79
2021/04/19 03:13:52;;;;;;;0.37;0.37;;;9.80;99.90;;;;;;5013168;28;20701;-81
2021/04/19 03:16:21;;;;;;;1.87;0.80;;;9.80;99.90;;;;;;5004243;28;20198;-80
2021/04/19 03:18:50;;;;;;;0.83;0.60;;;9.40;99.90;;;;;;4987714;28;20205;-80
2021/04/19 03:21:21;;;;;;;0.40;0.40;;;9.10;99.90;;;;;;5009679;28;20926;-81
2021/04/19 03:23:50;;;;;;;0.40;0.40;;;9.20;99.90;;;;;;5007337;28;20249;-81
2021/04/19 03:26:18;;;;;;;0.57;0.50;;;9.10;99.90;;;;;;5007276;28;20258;-80
2021/04/19 03:28:49;;;;;;;0.53;0.50;;;9.10;99.90;;;;;;4981150;28;20186;-81
2021/04/19 03:31:25;;;;;;;0.63;0.13;;;9.20;99.90;;;;;;4978672;28;20188;-81
2021/04/19 03:33:53;;;;;;;0.53;0.30;;;9.40;99.90;;;;;;5000873;28;20177;-81
2021/04/19 03:36:20;;;;;;;0.30;0.30;;;9.40;99.90;;;;;;4992901;28;20198;-81
2021/04/19 03:38:47;;;;;;;0.63;0.63;;;9.50;99.90;;;;;;4988629;28;20190;-80
2021/04/19 03:41:15;;;;;;;1.83;0.80;;;9.50;99.90;;;;;;4994235;28;20635;-81
2021/04/19 03:43:45;;;;;;;0.87;0.67;;;9.50;99.90;;;;;;5000358;28;20234;-81
2021/04/19 03:46:14;;;;;;;0.60;0.60;;;9.50;99.90;;;;;;4985574;28;20212;-81
2021/04/19 03:48:43;;;;;;;0.30;0.30;;;9.60;99.90;;;;;;5003913;28;20186;-81
2021/04/19 03:51:11;;;;;;;0.77;0.47;;;9.60;99.90;;;;;;4993852;28;20530;-81
2021/04/19 03:53:38;;;;;;;0.60;0.50;;;9.70;99.90;;;;;;4998092;28;20269;-80
2021/04/19 03:56:05;;;;;;;0.40;0.40;;;9.70;99.90;;;;;;5003212;28;20184;-81
2021/04/19 03:58:33;;;;;;;0.50;0.50;;;9.70;99.90;;;;;;4988799;28;20187;-81
2021/04/19 04:01:01;;;;;;;1.07;0.50;;;9.60;99.90;;;;;;4990091;28;20277;-81
2021/04/19 04:03:28;;;;;;;0.87;0.40;;;9.50;99.90;;;;;;4986653;28;20190;-80
2021/04/19 04:05:55;;;;;;;1.40;1.13;;;9.50;99.90;;;;;;4994200;28;20262;-81
2021/04/19 04:08:21;;;;;;;0.20;0.20;;;9.40;99.90;;;;;;4991633;28;20188;-81
2021/04/19 04:10:48;;;;;;;0.27;0.27;;;9.00;99.90;;;;;;4981382;28;20211;-81
2021/04/19 04:13:14;;;;;;;0.50;0.50;;;8.70;99.90;;;;;;4977996;28;20191;-80
2021/04/19 04:15:55;;;;;;;2.77;1.40;;;8.80;99.90;;;;;;4983547;28;20832;-79
2021/04/19 04:18:21;;;;;;;0.37;0.37;;;8.80;99.90;;;;;;4994187;28;20220;-81
2021/04/19 04:20:47;;;;;;;0.63;0.63;;;8.70;99.90;;;;;;4991866;28;20696;-81
2021/04/19 04:23:13;;;;;;;0.30;0.30;;;8.90;99.90;;;;;;5006401;28;20189;-81
2021/04/19 04:25:40;;;;;;;0.30;0.30;;;9.00;99.90;;;;;;4994829;28;20609;-81
2021/04/19 04:28:05;;;;;;;0.30;0.30;;;9.10;99.90;;;;;;4982913;28;20672;-80
2021/04/19 04:30:34;;;;;;;0.30;0.30;;;9.10;99.90;;;;;;4992254;28;20206;-81
2021/04/19 04:33:00;;;;;;;0.40;0.40;;;9.10;99.90;;;;;;4992872;28;20242;-81
2021/04/19 04:35:26;;;;;;;0.53;0.53;;;9.20;99.90;;;;;;5011645;28;20191;-81
2021/04/19 04:37:51;;;;;;;0.20;0.20;;;9.30;99.90;;;;;;5000357;28;20194;-81
2021/04/19 04:40:17;;;;;;;0.30;0.30;;;9.40;99.90;;;;;;4994407;28;20261;-81
2021/04/19 04:42:45;;;;;;;0.53;0.53;;;9.50;99.90;;;;;;5007799;28;20274;-81
2021/04/19 04:45:11;;;;;;;0.30;0.30;;;9.60;99.90;;;;;;4985018;28;20297;-84
2021/04/19 04:48:00;;;;;;;0.17;0.17;;;9.50;99.90;;;;;;4991982;28;20543;-83
2021/04/19 04:50:36;;;;;;;0.10;0.10;;;9.50;99.90;;;;;;5010375;28;20205;-85
2021/04/19 04:53:06;;;;;;;2.03;0.23;;;9.60;99.90;;;;;;4995715;28;20208;-84
2021/04/19 04:55:34;;;;;;;0.20;0.20;;;9.70;99.90;;;;;;4997453;28;20567;-84
2021/04/19 04:58:01;;;;;;;0.10;0.10;;;9.70;99.90;;;;;;4998206;28;20244;-80
2021/04/19 05:00:27;;;;;;;0.67;0.43;;;9.80;99.90;;;;;;4989304;28;20788;-81
2021/04/19 05:02:53;;;;;;;1.03;0.30;;;9.90;99.90;;;;;;5014121;28;20182;-81
2021/04/19 05:05:19;;;;;;;0.20;0.20;;;10.00;99.90;;;;;;4989302;28;20231;-81
2021/04/19 05:07:46;;;;;;;0.23;0.17;;;9.80;99.90;;;;;;5004383;28;20277;-81
2021/04/19 05:10:13;;;;;;;0.10;0.10;;;9.90;99.90;;;;;;5009890;28;20808;-84
2021/04/19 05:12:39;;;;;;;0.10;0.10;;;10.10;99.90;;;;;;4996654;28;20557;-84
2021/04/19 05:15:10;;;;;;;0.17;0.17;;;10.20;99.90;;;;;;4992886;28;20187;-84
2021/04/19 05:17:36;;;;;;;0.50;0.50;;;10.40;99.90;;;;;;4990433;28;20183;-80
2021/04/19 05:20:04;;;;;;;0.40;0.40;;;10.50;99.90;;;;;;5005741;28;20218;-81
2021/04/19 05:22:30;;;;;;;0.00;0.00;;;10.50;99.90;;;;;;4987300;28;20560;-82
2021/04/19 05:24:55;;;;;;;0.23;0.23;;;10.50;99.90;;;;;;4991819;28;20211;-82
2021/04/19 05:27:21;;;;;;;0.47;0.47;;;10.60;99.90;;;;;;4989119;28;20212;-81
2021/04/19 05:29:47;;;;;;;0.30;0.30;;;10.80;99.90;;;;;;5009361;28;20199;-81
2021/04/19 05:32:13;;;;;;;0.33;0.33;;;10.90;99.90;;;;;;4988506;28;20190;-82
2021/04/19 05:34:39;;;;;;;0.20;0.20;;;10.90;99.90;;;;;;4988026;28;20200;-81
2021/04/19 05:37:06;;;;;;;0.23;0.23;;;11.00;99.90;;;;;;4987419;28;20617;-81
2021/04/19 05:39:32;;;;;;;0.30;0.30;;;10.90;99.90;;;;;;5004437;28;20242;-81
2021/04/19 05:41:59;;;;;;;0.33;0.33;;;10.60;99.90;;;;;;4992312;28;20199;-80
2021/04/19 05:44:25;;;;;;;0.30;0.30;;;10.20;99.90;;;;;;4990319;28;20584;-81
2021/04/19 05:46:52;;;;;;;0.60;0.60;;;10.00;99.90;;;;;;4987966;28;20188;-81
2021/04/19 05:49:17;;;;;;;0.30;0.30;;;10.10;99.90;;;;;;4989480;28;20203;-80
2021/04/19 05:51:44;;;;;;;0.50;0.43;;;10.30;99.90;;;;;;4989503;28;20217;-82
2021/04/19 05:54:10;;;;;;;0.20;0.20;;;10.50;99.90;;;;;;5004999;28;20187;-82
2021/04/19 05:56:36;;;;;;;0.40;0.40;;;10.70;99.90;;;;;;4991796;28;20191;-84
2021/04/19 05:59:40;;;;;;;0.30;0.30;;;10.70;99.90;;;;;;5003903;28;20213;-81
2021/04/19 06:02:08;;;;;;;0.30;0.30;;;10.80;99.90;;;;;;5001530;28;20218;-81
2021/04/19 06:05:15;;;;;;;0.10;0.10;;;11.00;99.90;;;;;;4989213;28;20226;-80
2021/04/19 06:07:42;;;;;;;0.40;0.40;;;11.00;99.90;;;;;;4958286;28;20205;-79
2021/04/19 06:10:18;;;;;;;0.20;0.20;;;11.00;99.90;;;;;;4999730;28;20698;-81
2021/04/19 06:12:50;;;;;;;0.33;0.33;;;10.70;99.90;;;;;;5012994;28;20185;-80
2021/04/19 06:15:18;;;;;;;0.23;0.23;;;10.70;99.90;;;;;;4999511;28;20210;-83
2021/04/19 06:17:47;;;;;;;0.90;0.30;;;10.80;99.90;;;;;;4985972;28;20674;-83
2021/04/19 06:20:18;;;;;;;0.40;0.40;;;10.60;99.90;;;;;;4983383;28;20702;-84
2021/04/19 06:22:44;;;;;;;0.40;0.40;;;10.60;99.90;;;;;;4992122;28;20182;-83
2021/04/19 06:25:15;;;;;;;0.60;0.33;;;10.50;99.90;;;;;;4996416;28;20705;-83
2021/04/19 06:27:41;;;;;;;0.40;0.40;;;10.40;99.90;;;;;;4998001;28;20194;-83
2021/04/19 06:30:19;;;;;;;0.70;0.70;;;10.20;99.90;;;;;;4978895;28;20204;-83
2021/04/19 06:32:47;;;;;;;0.87;0.70;;;10.10;99.90;;;;;;4988765;28;20183;-84
2021/04/19 06:35:16;;;;;;;0.73;0.37;;;10.00;99.90;;;;;;4989720;28;20191;-83
2021/04/19 06:37:42;;;;;;;1.50;0.33;;;9.90;99.90;;;;;;4990458;28;20282;-84
2021/04/19 06:40:09;;;;;;;0.20;0.20;;;10.00;99.90;;;;;;5012929;28;20741;-84
2021/04/19 06:42:35;;;;;;;0.77;0.27;;;9.80;99.90;;;;;;4992932;28;20189;-83
2021/04/19 06:45:04;;;;;;;0.70;0.70;;;9.70;99.90;;;;;;4995578;28;20265;-84
2021/04/19 06:47:31;;;;;;;0.57;0.37;;;9.70;99.90;;;;;;4990812;28;20194;-84
2021/04/19 06:49:58;;;;;;;0.37;0.37;;;9.80;99.90;;;;;;5004287;28;20205;-82
2021/04/19 06:52:25;;;;;;;0.50;0.50;;;9.80;99.90;;;;;;4988467;28;20180;-81
2021/04/19 06:54:50;;;;;;;0.30;0.30;;;9.90;99.90;;;;;;4985163;28;20194;-81
2021/04/19 06:57:18;;;;;;;0.20;0.20;;;9.80;99.90;;;;;;5007565;28;20674;-81
2021/04/19 06:59:45;;;;;;;0.57;0.57;;;9.80;99.90;;;;;;4993624;28;20206;-81
2021/04/19 07:02:16;;;;;;;0.20;0.20;;;9.90;99.90;;;;;;4988981;28;20195;-80
2021/04/19 07:04:42;;;;;;;0.40;0.40;;;10.00;99.90;;;;;;4993428;28;20214;-81
2021/04/19 07:07:13;;;;;;;2.93;0.60;;;9.90;99.90;;;;;;5008337;28;20190;-81
2021/04/19 07:09:42;;;;;;;0.30;0.30;;;9.90;99.90;;;;;;5010570;28;20329;-79
2021/04/19 07:12:17;;;;;;;0.33;0.33;;;9.90;99.90;;;;;;4982864;28;20249;-80
2021/04/19 07:14:47;;;;;;;0.40;0.40;;;9.80;99.90;;;;;;4987079;28;20195;-81
2021/04/19 07:17:13;;;;;;;0.53;0.53;;;9.90;99.90;;;;;;4980004;28;20198;-84
2021/04/19 07:19:39;;;;;;;1.40;0.67;;;9.90;99.90;;;;;;4978368;28;20353;-81
2021/04/19 07:22:14;;;;;;;0.40;0.40;;;9.90;99.90;;;;;;5119171;27;20595;-82
2021/04/19 07:24:40;;;;;;;0.30;0.30;;;10.10;99.90;;;;;;5121923;27;20177;-81
2021/04/19 07:27:06;;;;;;;0.63;0.63;;;10.20;99.90;;;;;;5121732;27;20179;-80
2021/04/19 07:29:32;;;;;;;0.60;0.50;;;10.20;99.90;;;;;;5114244;27;20203;-81
2021/04/19 07:31:58;;;;;;;0.23;0.23;;;10.50;99.90;;;;;;5118188;27;20195;-82
2021/04/19 07:34:26;;;;;;;0.57;0.57;;;10.80;99.90;;;;;;5114102;27;20723;-83
2021/04/19 07:36:59;;;;;;;1.50;0.43;;;10.90;99.90;;;;;;5110503;27;20225;-84
2021/04/19 07:39:28;;;;;;;0.40;0.40;;;10.60;99.90;;;;;;5116815;27;20206;-80
2021/04/19 07:41:58;;;;;;;0.47;0.40;;;10.40;99.90;;;;;;5124464;27;20207;-81
2021/04/19 07:44:45;;;;;;;0.50;0.50;;;10.40;99.90;;;;;;5117244;27;20178;-81
2021/04/19 07:47:22;;;;;;;0.40;0.40;;;10.40;99.90;;;;;;5124665;27;20615;-81
2021/04/19 07:49:56;;;;;;;0.10;0.10;;;10.30;99.90;;;;;;5118348;27;20226;-80
2021/04/19 07:52:22;;;;;;;0.40;0.40;;;10.30;99.90;;;;;;5115296;27;20245;-80
2021/04/19 07:55:05;;;;;;;0.37;0.30;;;10.40;99.90;;;;;;5146460;27;20257;-81
2021/04/19 07:57:30;;;;;;;0.00;0.00;;;10.40;99.90;;;;;;5122593;28;20299;-79
2021/04/19 07:59:56;;;;;;;0.37;0.30;;;10.50;99.90;;;;;;5114983;27;20227;-81
2021/04/19 08:02:22;;;;;;;0.27;0.17;;;10.50;99.90;;;;;;5126422;27;20185;-81
2021/04/19 08:04:51;;;;;;;0.10;0.10;;;10.50;99.90;;;;;;5132053;27;20599;-81
2021/04/19 08:07:27;;;;;;;0.10;0.10;;;10.50;99.90;;;;;;5114616;27;20916;-81
2021/04/19 08:10:06;;;;;;;0.10;0.10;;;10.40;99.90;;;;;;5111312;27;20217;-80
2021/04/19 08:12:35;;;;;;;0.23;0.23;;;10.70;99.90;;;;;;5118305;27;20658;-81
2021/04/19 08:15:02;;;;;;;0.17;0.17;;;10.70;99.90;;;;;;5105342;27;20305;-79
2021/04/19 08:17:30;;;;;;;0.13;0.13;;;10.70;99.90;;;;;;5122928;27;20199;-81
2021/04/19 08:19:56;;;;;;;0.10;0.10;;;11.20;99.90;;;;;;5115932;27;20591;-81
2021/04/19 08:22:29;;;;;;;0.20;0.20;;;11.70;99.90;;;;;;5132868;27;20250;-82
2021/04/19 08:25:17;;;;;;;0.20;0.20;;;11.80;99.90;;;;;;5117442;27;20180;-82
2021/04/19 08:28:10;;;;;;;0.47;0.47;;;12.50;99.90;;;;;;5119562;27;20163;-82
2021/04/19 08:30:36;;;;;;;0.63;0.53;;;12.00;99.90;;;;;;5113497;27;20307;-81
2021/04/19 08:33:02;;;;;;;0.43;0.43;;;12.10;99.90;;;;;;5101841;28;20635;-81
2021/04/19 08:35:29;;;;;;;0.20;0.20;;;12.60;99.90;;;;;;5114216;27;20247;-81
2021/04/19 08:37:57;;;;;;;0.33;0.33;;;13.00;99.90;;;;;;5102458;28;20188;-81
2021/04/19 08:40:25;;;;;;;0.70;0.43;;;12.70;99.90;;;;;;5093289;28;20216;-81
2021/04/19 08:42:52;;;;;;;0.27;0.27;;;12.30;99.90;;;;;;5092878;28;20294;-81
2021/04/19 08:45:19;;;;;;;0.47;0.33;;;11.90;99.90;;;;;;5105300;28;20202;-79
2021/04/19 08:47:45;;;;;;;0.60;0.60;;;11.90;99.90;;;;;;5099726;28;20180;-80
2021/04/19 08:50:18;;;;;;;0.80;0.30;;;11.90;99.90;;;;;;5110068;27;20196;-81
2021/04/19 08:52:44;;;;;;;0.10;0.10;;;12.10;99.90;;;;;;5104236;27;20521;-81
2021/04/19 08:55:13;;;;;;;0.30;0.30;;;12.20;99.90;;;;;;5112992;27;20710;-81
2021/04/19 08:57:41;;;;;;;0.37;0.37;;;12.20;99.90;;;;;;5098751;28;20229;-81
2021/04/19 09:00:08;;;;;;;0.33;0.33;;;12.50;99.90;;;;;;5101485;28;20204;-82
2021/04/19 09:02:34;;;;;;;0.60;0.50;;;12.60;99.90;;;;;;5099884;27;20187;-81
2021/04/19 09:05:04;;;;;;;0.70;0.70;;;12.90;99.90;;;;;;5096828;28;20180;-80
2021/04/19 09:07:32;;;;;;;0.30;0.30;;;12.40;99.90;;;;;;5094796;28;20176;-81
2021/04/19 09:09:57;;;;;;;1.00;0.40;;;12.30;99.90;;;;;;5099424;28;20571;-81
2021/04/19 09:12:25;;;;;;;0.20;0.20;;;12.20;99.90;;;;;;5093425;28;20184;-81
2021/04/19 09:15:07;;;;;;;0.37;0.30;;;12.80;99.90;;;;;;5093797;28;20179;-81
2021/04/19 09:17:32;;;;;;;0.27;0.27;;;13.40;99.90;;;;;;5095326;28;20526;-81
2021/04/19 09:20:00;;;;;;;0.20;0.20;;;14.10;99.90;;;;;;5100422;28;20203;-81
2021/04/19 09:22:27;;;;;;;0.53;0.40;;;14.10;99.90;;;;;;5095303;28;20203;-80
2021/04/19 09:25:03;;;;;;;0.67;0.37;;;13.70;99.90;;;;;;5094415;28;20194;-81
2021/04/19 09:27:54;;;;;;;0.57;0.50;;;13.10;99.90;;;;;;5104730;27;20788;-81
2021/04/19 09:30:28;;;;;;;0.33;0.33;;;13.10;99.90;;;;;;5100537;27;20208;-81
2021/04/19 09:33:03;;;;;;;1.27;0.80;;;13.10;99.90;;;;;;5099013;27;20798;-80
2021/04/19 09:35:46;;;;;;;1.23;0.80;;;13.20;99.90;;;;;;5100536;28;20179;-81
2021/04/19 09:38:14;;;;;;;0.40;0.40;;;13.30;99.90;;;;;;5099398;28;20193;-81
2021/04/19 09:40:50;;;;;;;1.50;0.97;;;13.10;99.90;;;;;;5103456;28;20259;-81
2021/04/19 09:43:45;;;;;;;0.23;0.23;;;13.10;99.90;;;;;;5094214;27;20216;-81
2021/04/19 09:46:16;;;;;;;0.30;0.30;;;13.10;99.90;;;;;;5086756;27;20176;-80
2021/04/19 09:48:43;;;;;;;0.40;0.30;;;13.20;99.90;;;;;;5102560;28;20176;-81
2021/04/19 09:51:16;;;;;;;0.30;0.20;;;13.80;99.90;;;;;;5107358;27;20183;-81
2021/04/19 09:53:52;;;;;;;0.20;0.17;;;14.30;99.90;;;;;;5104267;28;20231;-81
2021/04/19 09:56:29;;;;;;;0.30;0.30;;;14.70;99.90;;;;;;5108305;28;20185;-81
2021/04/19 09:58:56;;;;;;;0.17;0.17;;;14.70;99.90;;;;;;5102770;28;20237;-80
2021/04/19 10:01:23;;;;;;;0.30;0.30;;;14.40;99.90;;;;;;5098013;28;20211;-81
2021/04/19 10:03:50;;;;;;;0.50;0.47;;;14.80;99.90;;;;;;5097671;28;20557;-81
2021/04/19 10:06:43;;;;;;;0.47;0.40;;;14.10;99.90;;;;;;5105511;28;21960;-81
2021/04/19 10:09:14;;;;;;;0.53;0.40;;;14.00;99.90;;;;;;5094852;28;20209;-81
2021/04/19 10:11:42;;;;;;;0.20;0.20;;;13.70;99.90;;;;;;5102937;28;20186;-81
2021/04/19 10:14:11;;;;;;;1.17;0.57;;;14.10;99.90;;;;;;5100882;28;20191;-81
2021/04/19 10:16:43;;;;;;;0.67;0.30;;;14.20;99.90;;;;;;5096135;28;20176;-82
2021/04/19 10:19:09;;;;;;;0.53;0.53;;;14.10;99.90;;;;;;5101105;28;20235;-82
2021/04/19 10:21:35;;;;;;;0.10;0.10;;;13.60;99.90;;;;;;5095860;28;20727;-81
2021/04/19 10:24:02;;;;;;;0.53;0.20;;;13.60;99.90;;;;;;5092775;28;20254;-82
2021/04/19 10:26:37;;;;;;;0.30;0.30;;;13.40;99.90;;;;;;5096708;28;20196;-81
2021/04/19 10:29:12;;;;;;;0.87;0.40;;;13.10;99.90;;;;;;5101100;28;20201;-82
2021/04/19 10:31:45;;;;;;;0.50;0.40;;;13.30;99.90;;;;;;5093266;28;20179;-80
2021/04/19 10:34:12;;;;;;;0.50;0.33;;;13.10;99.90;;;;;;5101495;28;20186;-81
2021/04/19 10:36:48;;;;;;;0.13;0.13;;;13.30;99.90;;;;;;5103548;28;20235;-82
2021/04/19 10:39:16;;;;;;;0.30;0.30;;;13.40;99.90;;;;;;5098300;28;20211;-82
2021/04/19 10:41:43;;;;;;;0.20;0.20;;;13.80;99.90;;;;;;5104966;28;20571;-82
2021/04/19 10:44:09;;;;;;;0.17;0.13;;;13.90;99.90;;;;;;5104256;28;20596;-82
2021/04/19 10:46:38;;;;;;;1.23;0.67;;;13.90;99.90;;;;;;5107101;28;20189;-81
2021/04/19 10:49:05;;;;;;;0.50;0.50;;;14.10;99.90;;;;;;5093139;28;20201;-82
2021/04/19 10:51:32;;;;;;;1.23;1.23;;;14.00;99.90;;;;;;5101378;28;20190;-81
2021/04/19 10:54:01;;;;;;;0.27;0.27;;;14.10;99.90;;;;;;5099463;28;20176;-80
2021/04/19 10:56:27;;;;;;;0.63;0.63;;;14.10;99.90;;;;;;5102170;28;20199;-80
2021/04/19 10:59:00;;;;;;;0.93;0.30;;;13.00;99.90;;;;;;5101632;28;20654;-81
2021/04/19 11:01:29;;;;;;;0.67;0.30;;;12.70;99.90;;;;;;5100642;27;20331;-81
2021/04/19 11:03:56;;;;;;;0.20;0.20;;;12.40;99.90;;;;;;5100078;28;20181;-82
2021/04/19 11:06:21;;;;;;;0.53;0.53;;;12.40;99.90;;;;;;5097784;28;20188;-82
2021/04/19 11:09:00;;;;;;;0.10;0.10;;;12.60;99.90;;;;;;5098324;28;20191;-82
2021/04/19 11:11:37;;;;;;;1.17;0.67;;;12.80;99.90;;;;;;5101630;28;20180;-80
2021/04/19 11:14:21;;;;;;;0.27;0.27;;;12.80;99.90;;;;;;5104779;28;20272;-82
2021/04/19 11:17:07;;;;;;;4.60;0.63;;;12.80;99.90;;;;;;5098899;28;20179;-82
2021/04/19 11:19:44;;;;;;;0.67;0.40;;;13.10;99.90;;;;;;5098372;28;20199;-81
2021/04/19 11:22:26;;;;;;;2.30;0.33;;;13.10;99.90;;;;;;5114967;28;20204;-81
2021/04/19 11:24:52;;;;;;;0.73;0.67;;;13.20;99.90;;;;;;5098416;28;20639;-81
2021/04/19 11:27:23;;;;;;;0.10;0.10;;;13.10;99.90;;;;;;5099106;28;20647;-81
2021/04/19 11:29:49;;;;;;;0.30;0.30;;;13.30;99.90;;;;;;5100176;28;20581;-82
2021/04/19 11:32:34;;;;;;;0.13;0.13;;;14.00;99.90;;;;;;5100140;28;20188;-82
2021/04/19 11:35:01;;;;;;;0.40;0.40;;;14.20;99.90;;;;;;5101289;28;20214;-81
2021/04/19 11:37:39;;;;;;;0.33;0.33;;;14.10;99.90;;;;;;5093051;28;20182;-82
2021/04/19 11:40:24;;;;;;;0.97;0.67;;;14.50;99.90;;;;;;5093453;28;20208;-82
2021/04/19 11:42:50;;;;;;;0.10;0.10;;;14.40;99.90;;;;;;5093933;28;20182;-82
2021/04/19 11:45:20;;;;;;;0.53;0.20;;;13.90;99.90;;;;;;5092904;28;20781;-82
2021/04/19 11:47:46;;;;;;;0.20;0.20;;;14.00;99.90;;;;;;5093824;28;20660;-81
2021/04/19 11:50:12;;;;;;;0.30;0.30;;;14.10;99.90;;;;;;5101421;28;20206;-79
2021/04/19 11:52:49;;;;;;;0.43;0.30;;;14.20;99.90;;;;;;5095256;28;20245;-80
2021/04/19 11:55:16;;;;;;;0.30;0.30;;;14.00;99.90;;;;;;5092919;28;20185;-80
2021/04/19 11:57:45;;;;;;;0.30;0.30;;;14.20;99.90;;;;;;5118110;27;20185;-80
2021/04/19 12:00:15;;;;;;;0.40;0.40;;;13.80;99.90;;;;;;5096914;28;20203;-81
2021/04/19 12:02:41;;;;;;;0.40;0.40;;;13.90;99.90;;;;;;5117345;28;20202;-80
2021/04/19 12:05:08;;;;;;;0.37;0.37;;;14.10;99.90;;;;;;5096470;28;20245;-78
2021/04/19 12:07:34;;;;;;;0.57;0.20;;;14.70;99.90;;;;;;5099126;28;20187;-80
2021/04/19 12:10:00;;;;;;;0.10;0.10;;;14.80;99.90;;;;;;5098598;28;20210;-79
2021/04/19 12:12:26;;;;;;;0.50;0.50;;;14.10;99.90;;;;;;5107491;28;20270;-80
2021/04/19 12:14:52;;;;;;;0.10;0.10;;;14.60;99.90;;;;;;5094103;27;20175;-81
2021/04/19 12:17:18;;;;;;;0.20;0.20;;;15.30;99.90;;;;;;5110095;27;20186;-82
2021/04/19 12:19:44;;;;;;;0.37;0.23;;;15.00;99.90;;;;;;5108585;28;20268;-81
2021/04/19 12:22:09;;;;;;;0.13;0.13;;;15.20;99.90;;;;;;5095115;27;20693;-81
2021/04/19 12:24:35;;;;;;;0.30;0.30;;;15.50;99.90;;;;;;5099537;27;20240;-80
2021/04/19 12:27:00;;;;;;;0.23;0.23;;;15.80;99.90;;;;;;5100608;27;20222;-81
2021/04/19 12:29:26;;;;;;;0.50;0.50;;;16.20;99.90;;;;;;5103113;27;20229;-81
2021/04/19 12:31:52;;;;;;;0.30;0.30;;;15.90;99.90;;;;;;5112984;27;20579;-82
2021/04/19 12:34:18;;;;;;;0.30;0.30;;;15.10;99.90;;;;;;5109921;27;20221;-81
2021/04/19 12:36:43;;;;;;;0.47;0.47;;;15.00;99.90;;;;;;5101700;28;20182;-80
2021/04/19 12:39:09;;;;;;;0.40;0.40;;;15.50;99.90;;;;;;5105253;28;20207;-81
2021/04/19 12:41:35;;;;;;;0.30;0.30;;;15.50;99.90;;;;;;5094421;28;20691;-81
2021/04/19 12:44:00;;;;;;;0.20;0.20;;;15.40;99.90;;;;;;5083146;28;20271;-81
2021/04/19 12:46:27;;;;;;;0.50;0.20;;;16.10;99.90;;;;;;5081438;28;20249;-81
2021/04/19 12:48:54;;;;;;;0.30;0.30;;;16.50;99.90;;;;;;5086170;28;20195;-81
2021/04/19 12:51:21;;;;;;;0.10;0.10;;;16.80;99.90;;;;;;5102147;28;20225;-80
2021/04/19 12:53:47;;;;;;;0.27;0.27;;;17.10;99.90;;;;;;5099028;28;20181;-81
2021/04/19 12:56:12;;;;;;;0.17;0.17;;;17.10;99.90;;;;;;5102246;28;20204;-80
2021/04/19 12:58:41;;;;;;;0.33;0.33;;;16.90;99.90;;;;;;5106199;28;20668;-81
2021/04/19 13:01:08;;;;;;;0.30;0.30;;;16.40;99.90;;;;;;5101984;27;20290;-82
2021/04/19 13:03:35;;;;;;;0.30;0.30;;;16.30;99.90;;;;;;5101260;28;20186;-83